sensor_id;sensor_type;location;lat;lon;timestamp;P1;durP1;ratioP1;P2;durP2;ratioP2
10847;SDS011;5477;48.806;9.154;2023-05-31T00:02:13;3.93;;;2.50;;
10847;SDS011;5477;48.806;9.154;2023-05-31T00:04:41;4.73;;;1.97;;
10847;SDS011;5477;48.806;9.154;2023-05-31T00:07:09;5.03;;;2.40;;
10847;SDS011;5477;48.806;9.154;2023-05-31T00:09:37;5.20;;;2.47;;
10847;SDS011;5477;48.806;9.154;2023-05-31T00:12:06;4.13;;;2.47;;
10847;SDS011;5477;48.806;9.154;2023-05-31T00:14:35;5.57;;;2.33;;
10847;SDS011;5477;48.806;9.154;2023-05-31T00:17:04;10.17;;;3.20;;
10847;SDS011;5477;48.806;9.154;2023-05-31T00:19:52;7.27;;;2.70;;
10847;SDS011;5477;48.806;9.154;2023-05-31T00:22:20;3.00;;;1.93;;
10847;SDS011;5477;48.806;9.154;2023-05-31T00:24:48;4.43;;;2.30;;
10847;SDS011;5477;48.806;9.154;2023-05-31T00:27:16;4.60;;;2.20;;
10847;SDS011;5477;48.806;9.154;2023-05-31T00:29:46;4.50;;;2.47;;
10847;SDS011;5477;48.806;9.154;2023-05-31T00:32:14;4.90;;;2.53;;
10847;SDS011;5477;48.806;9.154;2023-05-31T00:34:42;3.63;;;2.20;;
10847;SDS011;5477;48.806;9.154;2023-05-31T00:37:10;3.87;;;2.33;;
10847;SDS011;5477;48.806;9.154;2023-05-31T00:39:38;4.93;;;2.87;;
10847;SDS011;5477;48.806;9.154;2023-05-31T00:42:06;5.00;;;2.43;;
10847;SDS011;5477;48.806;9.154;2023-05-31T00:44:36;4.23;;;2.40;;
10847;SDS011;5477;48.806;9.154;2023-05-31T00:47:05;4.03;;;2.33;;
10847;SDS011;5477;48.806;9.154;2023-05-31T00:49:34;5.33;;;2.63;;
10847;SDS011;5477;48.806;9.154;2023-05-31T00:52:03;4.60;;;3.30;;
10847;SDS011;5477;48.806;9.154;2023-05-31T00:54:32;4.70;;;2.67;;
10847;SDS011;5477;48.806;9.154;2023-05-31T00:57:00;5.00;;;2.20;;
10847;SDS011;5477;48.806;9.154;2023-05-31T00:59:28;5.33;;;2.50;;
10847;SDS011;5477;48.806;9.154;2023-05-31T01:01:58;3.53;;;2.20;;
10847;SDS011;5477;48.806;9.154;2023-05-31T01:04:31;4.60;;;2.30;;
10847;SDS011;5477;48.806;9.154;2023-05-31T01:06:59;5.33;;;2.63;;
10847;SDS011;5477;48.806;9.154;2023-05-31T01:09:28;4.33;;;2.07;;
10847;SDS011;5477;48.806;9.154;2023-05-31T01:11:59;4.20;;;2.20;;
10847;SDS011;5477;48.806;9.154;2023-05-31T01:14:36;4.87;;;1.90;;
10847;SDS011;5477;48.806;9.154;2023-05-31T01:17:20;4.67;;;2.10;;
10847;SDS011;5477;48.806;9.154;2023-05-31T01:19:58;3.60;;;1.90;;
10847;SDS011;5477;48.806;9.154;2023-05-31T01:22:35;7.60;;;2.60;;
10847;SDS011;5477;48.806;9.154;2023-05-31T01:25:20;5.20;;;2.10;;
10847;SDS011;5477;48.806;9.154;2023-05-31T01:27:56;6.83;;;2.30;;
10847;SDS011;5477;48.806;9.154;2023-05-31T01:30:27;3.90;;;2.10;;
10847;SDS011;5477;48.806;9.154;2023-05-31T01:32:57;3.87;;;2.17;;
10847;SDS011;5477;48.806;9.154;2023-05-31T01:35:28;5.33;;;2.10;;
10847;SDS011;5477;48.806;9.154;2023-05-31T01:37:56;3.20;;;2.30;;
10847;SDS011;5477;48.806;9.154;2023-05-31T01:40:27;4.10;;;2.07;;
10847;SDS011;5477;48.806;9.154;2023-05-31T01:42:56;3.57;;;2.10;;
10847;SDS011;5477;48.806;9.154;2023-05-31T01:45:25;4.80;;;2.03;;
10847;SDS011;5477;48.806;9.154;2023-05-31T01:47:57;5.23;;;2.13;;
10847;SDS011;5477;48.806;9.154;2023-05-31T01:50:28;4.60;;;1.90;;
10847;SDS011;5477;48.806;9.154;2023-05-31T01:52:56;7.00;;;2.23;;
10847;SDS011;5477;48.806;9.154;2023-05-31T01:55:24;4.47;;;2.13;;
10847;SDS011;5477;48.806;9.154;2023-05-31T01:57:52;3.90;;;1.90;;
10847;SDS011;5477;48.806;9.154;2023-05-31T02:00:24;3.87;;;1.87;;
10847;SDS011;5477;48.806;9.154;2023-05-31T02:02:53;3.57;;;1.87;;
10847;SDS011;5477;48.806;9.154;2023-05-31T02:05:22;7.40;;;2.33;;
10847;SDS011;5477;48.806;9.154;2023-05-31T02:07:51;7.83;;;2.10;;
10847;SDS011;5477;48.806;9.154;2023-05-31T02:10:20;3.47;;;1.90;;
10847;SDS011;5477;48.806;9.154;2023-05-31T02:12:49;3.87;;;1.83;;
10847;SDS011;5477;48.806;9.154;2023-05-31T02:15:20;3.07;;;1.73;;
10847;SDS011;5477;48.806;9.154;2023-05-31T02:17:50;2.70;;;1.80;;
10847;SDS011;5477;48.806;9.154;2023-05-31T02:20:18;4.10;;;2.30;;
10847;SDS011;5477;48.806;9.154;2023-05-31T02:22:46;4.17;;;2.17;;
10847;SDS011;5477;48.806;9.154;2023-05-31T02:25:14;3.27;;;1.83;;
10847;SDS011;5477;48.806;9.154;2023-05-31T02:27:43;3.23;;;1.67;;
10847;SDS011;5477;48.806;9.154;2023-05-31T02:30:11;7.00;;;2.37;;
10847;SDS011;5477;48.806;9.154;2023-05-31T02:32:39;6.90;;;2.07;;
10847;SDS011;5477;48.806;9.154;2023-05-31T02:35:10;4.80;;;2.27;;
10847;SDS011;5477;48.806;9.154;2023-05-31T02:37:38;2.53;;;1.80;;
10847;SDS011;5477;48.806;9.154;2023-05-31T02:40:07;3.40;;;2.00;;
10847;SDS011;5477;48.806;9.154;2023-05-31T02:42:38;3.90;;;1.83;;
10847;SDS011;5477;48.806;9.154;2023-05-31T02:45:07;3.47;;;1.80;;
10847;SDS011;5477;48.806;9.154;2023-05-31T02:47:36;3.30;;;1.80;;
10847;SDS011;5477;48.806;9.154;2023-05-31T02:50:06;5.07;;;2.27;;
10847;SDS011;5477;48.806;9.154;2023-05-31T02:52:45;3.00;;;1.90;;
10847;SDS011;5477;48.806;9.154;2023-05-31T02:55:18;3.70;;;1.70;;
10847;SDS011;5477;48.806;9.154;2023-05-31T02:58:06;2.67;;;1.80;;
10847;SDS011;5477;48.806;9.154;2023-05-31T03:00:39;4.57;;;1.93;;
10847;SDS011;5477;48.806;9.154;2023-05-31T03:03:06;3.50;;;1.77;;
10847;SDS011;5477;48.806;9.154;2023-05-31T03:05:58;3.70;;;2.03;;
10847;SDS011;5477;48.806;9.154;2023-05-31T03:08:28;5.23;;;2.63;;
10847;SDS011;5477;48.806;9.154;2023-05-31T03:10:56;5.37;;;2.47;;
10847;SDS011;5477;48.806;9.154;2023-05-31T03:13:24;3.87;;;1.93;;
10847;SDS011;5477;48.806;9.154;2023-05-31T03:15:52;3.63;;;1.80;;
10847;SDS011;5477;48.806;9.154;2023-05-31T03:18:21;3.63;;;2.07;;
10847;SDS011;5477;48.806;9.154;2023-05-31T03:20:54;5.23;;;2.00;;
10847;SDS011;5477;48.806;9.154;2023-05-31T03:23:24;6.90;;;2.37;;
10847;SDS011;5477;48.806;9.154;2023-05-31T03:25:54;3.13;;;1.87;;
10847;SDS011;5477;48.806;9.154;2023-05-31T03:28:22;3.33;;;2.10;;
10847;SDS011;5477;48.806;9.154;2023-05-31T03:30:49;3.77;;;1.93;;
10847;SDS011;5477;48.806;9.154;2023-05-31T03:33:17;3.30;;;2.10;;
10847;SDS011;5477;48.806;9.154;2023-05-31T03:35:46;4.43;;;2.00;;
10847;SDS011;5477;48.806;9.154;2023-05-31T03:38:14;4.77;;;2.30;;
10847;SDS011;5477;48.806;9.154;2023-05-31T03:40:42;4.73;;;2.10;;
10847;SDS011;5477;48.806;9.154;2023-05-31T03:43:11;4.83;;;2.30;;
10847;SDS011;5477;48.806;9.154;2023-05-31T03:45:39;2.87;;;1.90;;
10847;SDS011;5477;48.806;9.154;2023-05-31T03:48:08;2.93;;;2.20;;
10847;SDS011;5477;48.806;9.154;2023-05-31T03:50:37;6.03;;;2.47;;
10847;SDS011;5477;48.806;9.154;2023-05-31T03:53:06;4.13;;;2.30;;
10847;SDS011;5477;48.806;9.154;2023-05-31T03:55:35;5.33;;;2.17;;
10847;SDS011;5477;48.806;9.154;2023-05-31T03:58:03;3.90;;;2.20;;
10847;SDS011;5477;48.806;9.154;2023-05-31T04:00:36;5.67;;;2.37;;
10847;SDS011;5477;48.806;9.154;2023-05-31T04:03:04;4.63;;;2.20;;
10847;SDS011;5477;48.806;9.154;2023-05-31T04:05:35;4.90;;;2.40;;
10847;SDS011;5477;48.806;9.154;2023-05-31T04:08:03;5.07;;;2.40;;
10847;SDS011;5477;48.806;9.154;2023-05-31T04:10:31;4.60;;;2.33;;
10847;SDS011;5477;48.806;9.154;2023-05-31T04:12:59;4.33;;;2.00;;
10847;SDS011;5477;48.806;9.154;2023-05-31T04:15:29;5.27;;;2.13;;
10847;SDS011;5477;48.806;9.154;2023-05-31T04:18:01;4.97;;;2.07;;
10847;SDS011;5477;48.806;9.154;2023-05-31T04:20:31;4.20;;;2.00;;
10847;SDS011;5477;48.806;9.154;2023-05-31T04:22:59;3.50;;;2.10;;
10847;SDS011;5477;48.806;9.154;2023-05-31T04:25:27;3.20;;;2.00;;
10847;SDS011;5477;48.806;9.154;2023-05-31T04:27:56;3.00;;;1.80;;
10847;SDS011;5477;48.806;9.154;2023-05-31T04:30:24;3.00;;;2.30;;
10847;SDS011;5477;48.806;9.154;2023-05-31T04:32:52;3.00;;;1.97;;
10847;SDS011;5477;48.806;9.154;2023-05-31T04:35:24;5.60;;;2.20;;
10847;SDS011;5477;48.806;9.154;2023-05-31T04:37:56;5.27;;;1.90;;
10847;SDS011;5477;48.806;9.154;2023-05-31T04:40:26;5.33;;;2.23;;
10847;SDS011;5477;48.806;9.154;2023-05-31T04:42:58;4.80;;;2.43;;
10847;SDS011;5477;48.806;9.154;2023-05-31T04:45:29;3.33;;;2.13;;
10847;SDS011;5477;48.806;9.154;2023-05-31T04:47:57;6.27;;;2.43;;
10847;SDS011;5477;48.806;9.154;2023-05-31T04:50:28;5.33;;;2.30;;
10847;SDS011;5477;48.806;9.154;2023-05-31T04:52:57;6.63;;;2.60;;
10847;SDS011;5477;48.806;9.154;2023-05-31T04:55:27;5.83;;;2.60;;
10847;SDS011;5477;48.806;9.154;2023-05-31T04:58:00;6.43;;;2.90;;
10847;SDS011;5477;48.806;9.154;2023-05-31T05:00:28;7.17;;;2.50;;
10847;SDS011;5477;48.806;9.154;2023-05-31T05:03:06;5.23;;;2.70;;
10847;SDS011;5477;48.806;9.154;2023-05-31T05:05:41;6.30;;;2.70;;
10847;SDS011;5477;48.806;9.154;2023-05-31T05:08:09;5.27;;;2.63;;
10847;SDS011;5477;48.806;9.154;2023-05-31T05:10:39;5.10;;;2.40;;
10847;SDS011;5477;48.806;9.154;2023-05-31T05:13:07;5.13;;;2.07;;
10847;SDS011;5477;48.806;9.154;2023-05-31T05:15:39;3.63;;;2.20;;
10847;SDS011;5477;48.806;9.154;2023-05-31T05:18:07;5.10;;;2.30;;
10847;SDS011;5477;48.806;9.154;2023-05-31T05:20:37;5.20;;;2.07;;
10847;SDS011;5477;48.806;9.154;2023-05-31T05:23:06;8.70;;;2.10;;
10847;SDS011;5477;48.806;9.154;2023-05-31T05:25:36;4.37;;;2.20;;
10847;SDS011;5477;48.806;9.154;2023-05-31T05:28:04;4.00;;;1.97;;
10847;SDS011;5477;48.806;9.154;2023-05-31T05:30:33;4.43;;;2.13;;
10847;SDS011;5477;48.806;9.154;2023-05-31T05:33:01;7.13;;;2.10;;
10847;SDS011;5477;48.806;9.154;2023-05-31T05:35:30;7.93;;;2.17;;
10847;SDS011;5477;48.806;9.154;2023-05-31T05:37:58;7.77;;;2.73;;
10847;SDS011;5477;48.806;9.154;2023-05-31T05:40:28;5.70;;;2.30;;
10847;SDS011;5477;48.806;9.154;2023-05-31T05:42:56;4.87;;;2.70;;
10847;SDS011;5477;48.806;9.154;2023-05-31T05:45:28;8.03;;;4.00;;
10847;SDS011;5477;48.806;9.154;2023-05-31T05:47:56;15.43;;;5.90;;
10847;SDS011;5477;48.806;9.154;2023-05-31T05:50:24;8.00;;;3.63;;
10847;SDS011;5477;48.806;9.154;2023-05-31T05:52:53;10.87;;;4.70;;
10847;SDS011;5477;48.806;9.154;2023-05-31T05:55:22;10.23;;;3.83;;
10847;SDS011;5477;48.806;9.154;2023-05-31T05:57:52;8.50;;;4.63;;
10847;SDS011;5477;48.806;9.154;2023-05-31T06:00:43;6.67;;;2.93;;
10847;SDS011;5477;48.806;9.154;2023-05-31T06:03:12;9.47;;;3.70;;
10847;SDS011;5477;48.806;9.154;2023-05-31T06:05:41;8.83;;;3.40;;
10847;SDS011;5477;48.806;9.154;2023-05-31T06:08:09;6.63;;;2.40;;
10847;SDS011;5477;48.806;9.154;2023-05-31T06:10:38;4.73;;;2.70;;
10847;SDS011;5477;48.806;9.154;2023-05-31T06:13:09;7.03;;;2.40;;
10847;SDS011;5477;48.806;9.154;2023-05-31T06:15:38;5.43;;;2.60;;
10847;SDS011;5477;48.806;9.154;2023-05-31T06:18:06;7.77;;;2.90;;
10847;SDS011;5477;48.806;9.154;2023-05-31T06:20:34;4.20;;;2.30;;
10847;SDS011;5477;48.806;9.154;2023-05-31T06:23:03;7.07;;;2.40;;
10847;SDS011;5477;48.806;9.154;2023-05-31T06:25:32;5.87;;;2.43;;
10847;SDS011;5477;48.806;9.154;2023-05-31T06:28:02;6.20;;;2.17;;
10847;SDS011;5477;48.806;9.154;2023-05-31T06:30:32;5.80;;;2.43;;
10847;SDS011;5477;48.806;9.154;2023-05-31T06:33:00;6.10;;;2.27;;
10847;SDS011;5477;48.806;9.154;2023-05-31T06:35:29;6.37;;;2.30;;
10847;SDS011;5477;48.806;9.154;2023-05-31T06:37:57;4.70;;;2.13;;
10847;SDS011;5477;48.806;9.154;2023-05-31T06:40:25;5.00;;;2.33;;
10847;SDS011;5477;48.806;9.154;2023-05-31T06:42:53;3.53;;;2.00;;
10847;SDS011;5477;48.806;9.154;2023-05-31T06:45:33;9.50;;;2.40;;
10847;SDS011;5477;48.806;9.154;2023-05-31T06:48:04;3.87;;;2.17;;
10847;SDS011;5477;48.806;9.154;2023-05-31T06:50:50;3.33;;;2.20;;
10847;SDS011;5477;48.806;9.154;2023-05-31T06:53:57;2.93;;;1.80;;
10847;SDS011;5477;48.806;9.154;2023-05-31T06:56:27;6.17;;;2.10;;
10847;SDS011;5477;48.806;9.154;2023-05-31T06:58:56;3.33;;;2.30;;
10847;SDS011;5477;48.806;9.154;2023-05-31T07:01:25;6.67;;;2.27;;
10847;SDS011;5477;48.806;9.154;2023-05-31T07:03:55;6.37;;;1.90;;
10847;SDS011;5477;48.806;9.154;2023-05-31T07:06:23;4.60;;;2.27;;
10847;SDS011;5477;48.806;9.154;2023-05-31T07:08:52;8.20;;;2.50;;
10847;SDS011;5477;48.806;9.154;2023-05-31T07:11:23;9.13;;;2.90;;
10847;SDS011;5477;48.806;9.154;2023-05-31T07:13:52;7.97;;;2.10;;
10847;SDS011;5477;48.806;9.154;2023-05-31T07:16:21;5.73;;;2.57;;
10847;SDS011;5477;48.806;9.154;2023-05-31T07:18:50;5.47;;;2.33;;
10847;SDS011;5477;48.806;9.154;2023-05-31T07:21:18;5.80;;;2.30;;
10847;SDS011;5477;48.806;9.154;2023-05-31T07:23:47;6.20;;;2.37;;
10847;SDS011;5477;48.806;9.154;2023-05-31T07:26:14;6.50;;;2.90;;
10847;SDS011;5477;48.806;9.154;2023-05-31T07:28:43;5.43;;;2.40;;
10847;SDS011;5477;48.806;9.154;2023-05-31T07:31:11;5.47;;;2.37;;
10847;SDS011;5477;48.806;9.154;2023-05-31T07:33:42;4.70;;;2.77;;
10847;SDS011;5477;48.806;9.154;2023-05-31T07:36:12;6.23;;;2.47;;
10847;SDS011;5477;48.806;9.154;2023-05-31T07:38:40;6.53;;;2.23;;
10847;SDS011;5477;48.806;9.154;2023-05-31T07:41:08;3.37;;;2.13;;
10847;SDS011;5477;48.806;9.154;2023-05-31T07:43:36;5.03;;;2.20;;
10847;SDS011;5477;48.806;9.154;2023-05-31T07:46:07;5.60;;;2.00;;
10847;SDS011;5477;48.806;9.154;2023-05-31T07:48:35;4.97;;;2.10;;
10847;SDS011;5477;48.806;9.154;2023-05-31T07:51:03;5.43;;;2.30;;
10847;SDS011;5477;48.806;9.154;2023-05-31T07:53:33;3.40;;;2.13;;
10847;SDS011;5477;48.806;9.154;2023-05-31T07:56:01;4.93;;;2.40;;
10847;SDS011;5477;48.806;9.154;2023-05-31T07:58:29;4.23;;;2.10;;
10847;SDS011;5477;48.806;9.154;2023-05-31T08:00:58;4.60;;;2.10;;
10847;SDS011;5477;48.806;9.154;2023-05-31T08:03:26;3.03;;;1.90;;
10847;SDS011;5477;48.806;9.154;2023-05-31T08:05:55;4.73;;;2.13;;
10847;SDS011;5477;48.806;9.154;2023-05-31T08:08:23;5.23;;;2.20;;
10847;SDS011;5477;48.806;9.154;2023-05-31T08:10:52;6.27;;;2.30;;
10847;SDS011;5477;48.806;9.154;2023-05-31T08:13:21;4.77;;;2.03;;
10847;SDS011;5477;48.806;9.154;2023-05-31T08:15:50;8.27;;;2.20;;
10847;SDS011;5477;48.806;9.154;2023-05-31T08:18:18;4.90;;;2.50;;
10847;SDS011;5477;48.806;9.154;2023-05-31T08:20:48;4.30;;;2.27;;
10847;SDS011;5477;48.806;9.154;2023-05-31T08:23:17;4.13;;;2.40;;
10847;SDS011;5477;48.806;9.154;2023-05-31T08:25:45;7.83;;;2.37;;
10847;SDS011;5477;48.806;9.154;2023-05-31T08:28:15;6.00;;;2.67;;
10847;SDS011;5477;48.806;9.154;2023-05-31T08:30:43;6.93;;;2.57;;
10847;SDS011;5477;48.806;9.154;2023-05-31T08:33:11;4.43;;;2.10;;
10847;SDS011;5477;48.806;9.154;2023-05-31T08:35:39;5.73;;;2.43;;
10847;SDS011;5477;48.806;9.154;2023-05-31T08:38:07;5.67;;;2.40;;
10847;SDS011;5477;48.806;9.154;2023-05-31T08:40:36;4.47;;;2.17;;
10847;SDS011;5477;48.806;9.154;2023-05-31T08:43:05;4.23;;;2.43;;
10847;SDS011;5477;48.806;9.154;2023-05-31T08:45:37;4.77;;;2.10;;
10847;SDS011;5477;48.806;9.154;2023-05-31T08:48:09;5.17;;;2.57;;
10847;SDS011;5477;48.806;9.154;2023-05-31T08:50:45;5.23;;;2.27;;
10847;SDS011;5477;48.806;9.154;2023-05-31T08:55:46;10.87;;;2.50;;
10847;SDS011;5477;48.806;9.154;2023-05-31T08:58:17;4.83;;;2.50;;
10847;SDS011;5477;48.806;9.154;2023-05-31T09:00:48;4.20;;;2.20;;
10847;SDS011;5477;48.806;9.154;2023-05-31T09:03:17;4.63;;;2.50;;
10847;SDS011;5477;48.806;9.154;2023-05-31T09:05:53;6.43;;;2.60;;
10847;SDS011;5477;48.806;9.154;2023-05-31T09:08:23;5.77;;;2.60;;
10847;SDS011;5477;48.806;9.154;2023-05-31T09:10:52;4.33;;;2.60;;
10847;SDS011;5477;48.806;9.154;2023-05-31T09:13:20;6.13;;;2.87;;
10847;SDS011;5477;48.806;9.154;2023-05-31T09:15:51;5.17;;;2.17;;
10847;SDS011;5477;48.806;9.154;2023-05-31T09:18:21;9.13;;;2.53;;
10847;SDS011;5477;48.806;9.154;2023-05-31T09:20:52;6.57;;;2.50;;
10847;SDS011;5477;48.806;9.154;2023-05-31T09:23:22;8.47;;;2.43;;
10847;SDS011;5477;48.806;9.154;2023-05-31T09:25:52;8.50;;;2.60;;
10847;SDS011;5477;48.806;9.154;2023-05-31T09:28:21;5.33;;;2.37;;
10847;SDS011;5477;48.806;9.154;2023-05-31T09:31:04;4.27;;;2.40;;
10847;SDS011;5477;48.806;9.154;2023-05-31T09:33:37;4.83;;;2.50;;
10847;SDS011;5477;48.806;9.154;2023-05-31T09:36:07;7.10;;;2.63;;
10847;SDS011;5477;48.806;9.154;2023-05-31T09:38:35;6.30;;;2.63;;
10847;SDS011;5477;48.806;9.154;2023-05-31T09:41:13;6.93;;;2.90;;
10847;SDS011;5477;48.806;9.154;2023-05-31T09:43:43;5.27;;;2.57;;
10847;SDS011;5477;48.806;9.154;2023-05-31T09:46:13;5.13;;;2.07;;
10847;SDS011;5477;48.806;9.154;2023-05-31T09:48:43;4.47;;;2.30;;
10847;SDS011;5477;48.806;9.154;2023-05-31T09:51:12;6.53;;;2.47;;
10847;SDS011;5477;48.806;9.154;2023-05-31T09:53:42;7.10;;;2.40;;
10847;SDS011;5477;48.806;9.154;2023-05-31T09:56:16;5.27;;;2.57;;
10847;SDS011;5477;48.806;9.154;2023-05-31T09:58:46;4.07;;;2.10;;
10847;SDS011;5477;48.806;9.154;2023-05-31T10:01:16;6.63;;;2.40;;
10847;SDS011;5477;48.806;9.154;2023-05-31T10:03:44;6.93;;;2.40;;
10847;SDS011;5477;48.806;9.154;2023-05-31T10:06:13;5.87;;;2.20;;
10847;SDS011;5477;48.806;9.154;2023-05-31T10:08:43;5.10;;;2.07;;
10847;SDS011;5477;48.806;9.154;2023-05-31T10:11:14;3.90;;;2.20;;
10847;SDS011;5477;48.806;9.154;2023-05-31T10:13:44;5.77;;;2.20;;
10847;SDS011;5477;48.806;9.154;2023-05-31T10:16:18;5.40;;;2.53;;
10847;SDS011;5477;48.806;9.154;2023-05-31T10:18:48;3.80;;;2.07;;
10847;SDS011;5477;48.806;9.154;2023-05-31T10:21:21;3.13;;;2.23;;
10847;SDS011;5477;48.806;9.154;2023-05-31T10:23:56;5.07;;;2.20;;
10847;SDS011;5477;48.806;9.154;2023-05-31T10:26:30;4.73;;;2.23;;
10847;SDS011;5477;48.806;9.154;2023-05-31T10:29:05;6.30;;;2.23;;
10847;SDS011;5477;48.806;9.154;2023-05-31T10:31:40;4.93;;;2.10;;
10847;SDS011;5477;48.806;9.154;2023-05-31T10:34:14;5.33;;;2.13;;
10847;SDS011;5477;48.806;9.154;2023-05-31T10:36:46;6.80;;;2.40;;
10847;SDS011;5477;48.806;9.154;2023-05-31T10:39:17;3.03;;;2.17;;
10847;SDS011;5477;48.806;9.154;2023-05-31T10:41:53;7.93;;;2.40;;
10847;SDS011;5477;48.806;9.154;2023-05-31T10:44:30;6.47;;;2.70;;
10847;SDS011;5477;48.806;9.154;2023-05-31T10:47:08;7.20;;;2.50;;
10847;SDS011;5477;48.806;9.154;2023-05-31T10:49:39;5.75;;;2.25;;
10847;SDS011;5477;48.806;9.154;2023-05-31T10:52:10;4.80;;;2.13;;
10847;SDS011;5477;48.806;9.154;2023-05-31T10:54:41;4.95;;;2.15;;
10847;SDS011;5477;48.806;9.154;2023-05-31T10:57:09;4.72;;;2.10;;
10847;SDS011;5477;48.806;9.154;2023-05-31T10:59:40;8.55;;;2.42;;
10847;SDS011;5477;48.806;9.154;2023-05-31T11:02:10;4.43;;;2.03;;
10847;SDS011;5477;48.806;9.154;2023-05-31T11:04:39;5.00;;;2.15;;
10847;SDS011;5477;48.806;9.154;2023-05-31T11:07:10;3.40;;;2.00;;
10847;SDS011;5477;48.806;9.154;2023-05-31T11:09:41;5.45;;;2.33;;
10847;SDS011;5477;48.806;9.154;2023-05-31T11:12:32;3.85;;;2.28;;
10847;SDS011;5477;48.806;9.154;2023-05-31T11:15:01;3.05;;;2.10;;
10847;SDS011;5477;48.806;9.154;2023-05-31T11:17:39;6.72;;;2.17;;
10847;SDS011;5477;48.806;9.154;2023-05-31T11:20:14;7.15;;;2.20;;
10847;SDS011;5477;48.806;9.154;2023-05-31T11:22:43;5.45;;;2.05;;
10847;SDS011;5477;48.806;9.154;2023-05-31T11:25:17;5.55;;;2.40;;
10847;SDS011;5477;48.806;9.154;2023-05-31T11:27:51;4.00;;;2.13;;
10847;SDS011;5477;48.806;9.154;2023-05-31T11:30:36;4.32;;;2.60;;
10847;SDS011;5477;48.806;9.154;2023-05-31T11:33:14;4.78;;;2.28;;
10847;SDS011;5477;48.806;9.154;2023-05-31T11:35:42;2.60;;;1.98;;
10847;SDS011;5477;48.806;9.154;2023-05-31T11:38:11;2.80;;;1.70;;
10847;SDS011;5477;48.806;9.154;2023-05-31T11:40:41;5.60;;;2.10;;
10847;SDS011;5477;48.806;9.154;2023-05-31T11:43:10;2.63;;;2.03;;
10847;SDS011;5477;48.806;9.154;2023-05-31T11:45:44;4.20;;;2.28;;
10847;SDS011;5477;48.806;9.154;2023-05-31T11:48:27;5.90;;;2.42;;
10847;SDS011;5477;48.806;9.154;2023-05-31T11:51:02;5.57;;;2.22;;
10847;SDS011;5477;48.806;9.154;2023-05-31T11:53:31;5.38;;;2.22;;
10847;SDS011;5477;48.806;9.154;2023-05-31T11:55:59;4.30;;;2.00;;
10847;SDS011;5477;48.806;9.154;2023-05-31T11:58:28;3.45;;;2.15;;
10847;SDS011;5477;48.806;9.154;2023-05-31T12:00:57;3.53;;;2.40;;
10847;SDS011;5477;48.806;9.154;2023-05-31T12:03:28;4.93;;;1.95;;
10847;SDS011;5477;48.806;9.154;2023-05-31T12:05:57;6.80;;;2.22;;
10847;SDS011;5477;48.806;9.154;2023-05-31T12:08:26;3.88;;;2.10;;
10847;SDS011;5477;48.806;9.154;2023-05-31T12:11:02;3.70;;;1.88;;
10847;SDS011;5477;48.806;9.154;2023-05-31T12:13:32;3.58;;;2.08;;
10847;SDS011;5477;48.806;9.154;2023-05-31T12:16:00;5.15;;;2.08;;
10847;SDS011;5477;48.806;9.154;2023-05-31T12:18:31;4.70;;;1.80;;
10847;SDS011;5477;48.806;9.154;2023-05-31T12:21:03;2.50;;;1.80;;
10847;SDS011;5477;48.806;9.154;2023-05-31T12:23:33;5.95;;;2.10;;
10847;SDS011;5477;48.806;9.154;2023-05-31T12:26:18;2.90;;;1.98;;
10847;SDS011;5477;48.806;9.154;2023-05-31T12:28:48;3.15;;;1.95;;
10847;SDS011;5477;48.806;9.154;2023-05-31T12:31:19;3.78;;;1.80;;
10847;SDS011;5477;48.806;9.154;2023-05-31T12:33:58;4.13;;;1.75;;
10847;SDS011;5477;48.806;9.154;2023-05-31T12:36:27;4.32;;;1.83;;
10847;SDS011;5477;48.806;9.154;2023-05-31T12:38:55;2.08;;;1.58;;
10847;SDS011;5477;48.806;9.154;2023-05-31T12:41:25;4.80;;;1.88;;
10847;SDS011;5477;48.806;9.154;2023-05-31T12:43:54;3.78;;;2.10;;
10847;SDS011;5477;48.806;9.154;2023-05-31T12:46:25;2.97;;;1.70;;
10847;SDS011;5477;48.806;9.154;2023-05-31T12:48:53;2.90;;;1.70;;
10847;SDS011;5477;48.806;9.154;2023-05-31T12:51:23;6.32;;;1.90;;
10847;SDS011;5477;48.806;9.154;2023-05-31T12:53:52;6.35;;;2.10;;
10847;SDS011;5477;48.806;9.154;2023-05-31T12:56:20;4.15;;;1.90;;
10847;SDS011;5477;48.806;9.154;2023-05-31T12:58:48;3.35;;;1.90;;
10847;SDS011;5477;48.806;9.154;2023-05-31T13:01:16;3.83;;;1.80;;
10847;SDS011;5477;48.806;9.154;2023-05-31T13:03:44;2.63;;;1.92;;
10847;SDS011;5477;48.806;9.154;2023-05-31T13:06:12;5.22;;;2.10;;
10847;SDS011;5477;48.806;9.154;2023-05-31T13:08:41;3.00;;;1.70;;
10847;SDS011;5477;48.806;9.154;2023-05-31T13:11:10;3.95;;;1.77;;
10847;SDS011;5477;48.806;9.154;2023-05-31T13:13:38;4.47;;;1.90;;
10847;SDS011;5477;48.806;9.154;2023-05-31T13:16:06;5.95;;;2.00;;
10847;SDS011;5477;48.806;9.154;2023-05-31T13:18:34;2.45;;;1.75;;
10847;SDS011;5477;48.806;9.154;2023-05-31T13:21:02;3.08;;;1.75;;
10847;SDS011;5477;48.806;9.154;2023-05-31T13:23:30;5.20;;;1.88;;
10847;SDS011;5477;48.806;9.154;2023-05-31T13:25:59;3.38;;;1.63;;
10847;SDS011;5477;48.806;9.154;2023-05-31T13:28:27;5.65;;;1.70;;
10847;SDS011;5477;48.806;9.154;2023-05-31T13:30:55;3.45;;;1.80;;
10847;SDS011;5477;48.806;9.154;2023-05-31T13:33:24;3.78;;;1.90;;
10847;SDS011;5477;48.806;9.154;2023-05-31T13:35:54;3.83;;;2.10;;
10847;SDS011;5477;48.806;9.154;2023-05-31T13:38:23;4.15;;;1.80;;
10847;SDS011;5477;48.806;9.154;2023-05-31T13:40:51;5.03;;;1.90;;
10847;SDS011;5477;48.806;9.154;2023-05-31T13:43:21;3.30;;;1.73;;
10847;SDS011;5477;48.806;9.154;2023-05-31T13:45:50;3.35;;;2.00;;
10847;SDS011;5477;48.806;9.154;2023-05-31T13:48:18;4.03;;;2.05;;
10847;SDS011;5477;48.806;9.154;2023-05-31T13:50:47;4.10;;;1.98;;
10847;SDS011;5477;48.806;9.154;2023-05-31T13:53:15;3.58;;;1.75;;
10847;SDS011;5477;48.806;9.154;2023-05-31T13:55:43;3.30;;;1.90;;
10847;SDS011;5477;48.806;9.154;2023-05-31T13:58:29;3.67;;;1.80;;
10847;SDS011;5477;48.806;9.154;2023-05-31T14:00:58;3.67;;;1.88;;
10847;SDS011;5477;48.806;9.154;2023-05-31T14:03:26;4.20;;;1.85;;
10847;SDS011;5477;48.806;9.154;2023-05-31T14:05:54;4.43;;;1.90;;
10847;SDS011;5477;48.806;9.154;2023-05-31T14:08:23;5.60;;;2.00;;
10847;SDS011;5477;48.806;9.154;2023-05-31T14:10:51;2.40;;;1.85;;
10847;SDS011;5477;48.806;9.154;2023-05-31T14:13:19;2.75;;;1.80;;
10847;SDS011;5477;48.806;9.154;2023-05-31T14:15:49;3.05;;;1.80;;
10847;SDS011;5477;48.806;9.154;2023-05-31T14:18:18;2.30;;;1.73;;
10847;SDS011;5477;48.806;9.154;2023-05-31T14:20:46;3.00;;;1.80;;
10847;SDS011;5477;48.806;9.154;2023-05-31T14:23:14;3.00;;;1.92;;
10847;SDS011;5477;48.806;9.154;2023-05-31T14:25:42;3.15;;;1.77;;
10847;SDS011;5477;48.806;9.154;2023-05-31T14:28:10;6.90;;;1.90;;
10847;SDS011;5477;48.806;9.154;2023-05-31T14:30:38;5.65;;;1.58;;
10847;SDS011;5477;48.806;9.154;2023-05-31T14:33:08;5.18;;;1.65;;
10847;SDS011;5477;48.806;9.154;2023-05-31T14:35:37;2.35;;;1.80;;
10847;SDS011;5477;48.806;9.154;2023-05-31T14:38:05;3.42;;;2.00;;
10847;SDS011;5477;48.806;9.154;2023-05-31T14:40:53;3.30;;;2.03;;
10847;SDS011;5477;48.806;9.154;2023-05-31T14:43:22;3.95;;;1.75;;
10847;SDS011;5477;48.806;9.154;2023-05-31T14:45:50;4.18;;;2.08;;
10847;SDS011;5477;48.806;9.154;2023-05-31T14:48:19;7.20;;;2.30;;
10847;SDS011;5477;48.806;9.154;2023-05-31T14:50:47;3.45;;;1.92;;
10847;SDS011;5477;48.806;9.154;2023-05-31T14:53:15;3.25;;;2.00;;
10847;SDS011;5477;48.806;9.154;2023-05-31T14:55:43;4.07;;;1.80;;
10847;SDS011;5477;48.806;9.154;2023-05-31T14:58:11;5.47;;;2.85;;
10847;SDS011;5477;48.806;9.154;2023-05-31T15:00:39;5.35;;;2.17;;
10847;SDS011;5477;48.806;9.154;2023-05-31T15:03:08;2.88;;;2.03;;
10847;SDS011;5477;48.806;9.154;2023-05-31T15:05:37;2.80;;;1.50;;
10847;SDS011;5477;48.806;9.154;2023-05-31T15:08:05;3.28;;;1.85;;
10847;SDS011;5477;48.806;9.154;2023-05-31T15:10:33;3.03;;;1.67;;
10847;SDS011;5477;48.806;9.154;2023-05-31T15:13:01;5.28;;;2.08;;
10847;SDS011;5477;48.806;9.154;2023-05-31T15:15:29;2.08;;;1.70;;
10847;SDS011;5477;48.806;9.154;2023-05-31T15:17:57;2.70;;;2.00;;
10847;SDS011;5477;48.806;9.154;2023-05-31T15:20:26;5.70;;;1.80;;
10847;SDS011;5477;48.806;9.154;2023-05-31T15:22:55;2.42;;;1.70;;